Time;durP1;ratioP1;P1;durP2;ratioP2;P2;SDS_P1;SDS_P2;PMS_P1;PMS_P2;Temp;Humidity;BMP_temperature;BMP_pressure;BME280_temperature;BME280_humidity;BME280_pressure;Samples;Min_cycle;Max_cycle;Signal;HPM_P1;HPM_P2
2022/08/29 00:01:07;;;;;;;4.57;2.17;;;;;;;;;;5061355;28;20586;-72
2022/08/29 00:03:34;;;;;;;7.13;2.40;;;;;;;;;;5065017;28;20695;-73
2022/08/29 00:06:00;;;;;;;4.70;1.93;;;;;;;;;;5059152;28;20200;-73
2022/08/29 00:08:26;;;;;;;3.80;2.27;;;;;;;;;;5061630;28;20169;-73
2022/08/29 00:10:53;;;;;;;4.73;2.10;;;;;;;;;;5059803;28;20637;-73
2022/08/29 00:13:19;;;;;;;4.53;2.03;;;;;;;;;;5063996;28;20780;-73
2022/08/29 00:15:46;;;;;;;3.50;2.20;;;;;;;;;;5058861;28;20189;-73
2022/08/29 00:18:16;;;;;;;4.00;2.00;;;;;;;;;;5065119;28;20185;-72
2022/08/29 00:20:43;;;;;;;3.47;2.13;;;;;;;;;;5059930;28;20254;-73
2022/08/29 00:23:09;;;;;;;3.53;2.10;;;;;;;;;;5058990;28;20259;-73
2022/08/29 00:25:35;;;;;;;5.93;1.87;;;;;;;;;;5061450;28;20221;-72
2022/08/29 00:28:02;;;;;;;3.60;1.97;;;;;;;;;;5065365;28;20177;-73
2022/08/29 00:30:28;;;;;;;3.33;2.07;;;;;;;;;;5062607;28;20220;-73
2022/08/29 00:32:54;;;;;;;3.20;1.83;;;;;;;;;;5062411;28;20189;-73
2022/08/29 00:35:25;;;;;;;4.27;2.03;;;;;;;;;;5059734;28;20268;-73
2022/08/29 00:37:53;;;;;;;3.27;2.10;;;;;;;;;;5060466;28;20217;-72
2022/08/29 00:40:23;;;;;;;3.40;2.10;;;;;;;;;;5062938;28;20650;-72
2022/08/29 00:42:49;;;;;;;4.10;1.90;;;;;;;;;;5061211;28;20216;-73
2022/08/29 00:45:16;;;;;;;4.57;2.07;;;;;;;;;;5063683;28;20207;-73
2022/08/29 00:47:48;;;;;;;5.03;2.23;;;;;;;;;;5061411;28;20660;-72
2022/08/29 00:50:26;;;;;;;2.83;1.87;;;;;;;;;;5060866;28;20185;-73
2022/08/29 00:52:55;;;;;;;3.33;1.97;;;;;;;;;;5061715;28;20192;-72
2022/08/29 00:55:23;;;;;;;4.13;1.97;;;;;;;;;;5061813;28;20296;-72
2022/08/29 00:57:54;;;;;;;3.80;2.10;;;;;;;;;;5063629;28;20677;-72
2022/08/29 01:00:21;;;;;;;4.30;2.43;;;;;;;;;;5059665;28;20321;-72
2022/08/29 01:02:47;;;;;;;5.70;2.03;;;;;;;;;;5066732;28;20201;-73
2022/08/29 01:05:16;;;;;;;3.50;2.00;;;;;;;;;;5061211;28;21293;-72
2022/08/29 01:07:42;;;;;;;4.27;2.33;;;;;;;;;;5056533;28;20196;-72
2022/08/29 01:10:09;;;;;;;6.30;2.20;;;;;;;;;;5063883;28;20200;-72
2022/08/29 01:12:36;;;;;;;2.63;2.00;;;;;;;;;;5056006;28;20190;-72
2022/08/29 01:15:04;;;;;;;4.90;2.30;;;;;;;;;;5059086;28;20213;-72
2022/08/29 01:17:32;;;;;;;3.23;2.10;;;;;;;;;;5052123;28;20193;-71
2022/08/29 01:20:12;;;;;;;4.50;1.77;;;;;;;;;;5059559;28;20246;-71
2022/08/29 01:22:57;;;;;;;3.93;2.10;;;;;;;;;;5059352;28;20219;-71
2022/08/29 01:25:25;;;;;;;4.83;2.10;;;;;;;;;;5059312;28;20189;-71
2022/08/29 01:27:54;;;;;;;3.40;2.10;;;;;;;;;;5062188;28;20529;-71
2022/08/29 01:30:20;;;;;;;4.63;1.90;;;;;;;;;;5059548;28;20556;-72
2022/08/29 01:32:47;;;;;;;5.27;2.23;;;;;;;;;;5060803;28;20216;-72
2022/08/29 01:35:13;;;;;;;3.40;1.87;;;;;;;;;;5060112;28;20201;-72
2022/08/29 01:37:41;;;;;;;3.93;2.10;;;;;;;;;;5055011;28;20562;-72
2022/08/29 01:40:09;;;;;;;4.27;2.23;;;;;;;;;;5060440;28;20185;-72
2022/08/29 01:42:35;;;;;;;5.23;2.10;;;;;;;;;;5059367;28;20241;-72
2022/08/29 01:45:02;;;;;;;3.37;2.30;;;;;;;;;;5064339;28;20205;-72
2022/08/29 01:47:30;;;;;;;4.83;2.40;;;;;;;;;;5060180;28;20181;-72
2022/08/29 01:49:57;;;;;;;6.27;2.67;;;;;;;;;;5067836;28;20197;-72
2022/08/29 01:52:23;;;;;;;4.43;2.13;;;;;;;;;;5060091;28;20681;-72
2022/08/29 01:54:49;;;;;;;4.70;2.37;;;;;;;;;;5069592;28;20867;-72
2022/08/29 01:57:16;;;;;;;3.70;1.90;;;;;;;;;;5068585;28;20187;-72
2022/08/29 01:59:42;;;;;;;6.30;2.33;;;;;;;;;;5069176;28;20173;-72
2022/08/29 02:02:10;;;;;;;4.80;2.13;;;;;;;;;;5051309;28;20359;-72
2022/08/29 02:04:39;;;;;;;3.73;2.03;;;;;;;;;;5068081;28;20550;-72
2022/08/29 02:07:05;;;;;;;5.60;2.37;;;;;;;;;;5065839;28;20184;-72
2022/08/29 02:09:31;;;;;;;4.17;2.10;;;;;;;;;;5066247;28;20256;-72
2022/08/29 02:11:58;;;;;;;5.23;2.30;;;;;;;;;;5068813;28;20181;-72
2022/08/29 02:14:25;;;;;;;4.73;2.10;;;;;;;;;;5064527;28;20920;-72
2022/08/29 02:16:51;;;;;;;4.33;2.10;;;;;;;;;;5068829;28;20615;-72
2022/08/29 02:19:18;;;;;;;4.30;2.20;;;;;;;;;;5066014;28;20173;-72
2022/08/29 02:21:44;;;;;;;2.50;2.00;;;;;;;;;;5063438;28;20740;-72
2022/08/29 02:24:11;;;;;;;4.37;2.10;;;;;;;;;;5064083;28;20742;-73
2022/08/29 02:26:37;;;;;;;4.47;2.20;;;;;;;;;;5068171;28;20196;-72
2022/08/29 02:29:03;;;;;;;3.70;2.10;;;;;;;;;;5067093;28;20177;-72
2022/08/29 02:31:29;;;;;;;3.53;2.10;;;;;;;;;;5066948;28;20189;-72
2022/08/29 02:33:56;;;;;;;3.70;2.17;;;;;;;;;;5065545;28;20285;-72
2022/08/29 02:36:22;;;;;;;3.73;2.30;;;;;;;;;;5062376;28;21011;-72
2022/08/29 02:38:49;;;;;;;3.13;2.20;;;;;;;;;;5064895;28;20185;-72
2022/08/29 02:41:15;;;;;;;3.63;2.30;;;;;;;;;;5065574;28;20658;-72
2022/08/29 02:43:42;;;;;;;5.63;2.40;;;;;;;;;;5066431;28;20227;-72
2022/08/29 02:46:12;;;;;;;4.30;2.20;;;;;;;;;;5066694;28;20173;-72
2022/08/29 02:48:38;;;;;;;5.17;2.37;;;;;;;;;;5068527;28;20173;-72
2022/08/29 02:51:04;;;;;;;4.57;2.60;;;;;;;;;;5062744;28;20196;-72
2022/08/29 02:53:31;;;;;;;6.83;2.23;;;;;;;;;;5068043;28;20201;-72
2022/08/29 02:55:57;;;;;;;4.57;2.47;;;;;;;;;;5067057;28;20734;-72
2022/08/29 02:58:24;;;;;;;3.83;2.20;;;;;;;;;;5067772;28;20262;-72
2022/08/29 03:00:51;;;;;;;5.20;2.13;;;;;;;;;;5066970;28;20184;-72
2022/08/29 03:03:18;;;;;;;3.13;2.07;;;;;;;;;;5063701;28;20227;-72
2022/08/29 03:05:44;;;;;;;3.67;2.10;;;;;;;;;;5063563;28;20181;-72
2022/08/29 03:08:12;;;;;;;5.10;2.40;;;;;;;;;;5063333;28;20256;-72
2022/08/29 03:10:39;;;;;;;5.67;2.50;;;;;;;;;;5062161;28;20182;-72
2022/08/29 03:13:05;;;;;;;5.37;2.20;;;;;;;;;;5064606;28;20227;-72
2022/08/29 03:15:31;;;;;;;3.23;2.10;;;;;;;;;;5064883;28;20219;-72
2022/08/29 03:17:58;;;;;;;8.37;2.43;;;;;;;;;;5066351;28;20850;-72
2022/08/29 03:20:24;;;;;;;4.70;2.40;;;;;;;;;;5062326;28;20592;-72
2022/08/29 03:22:52;;;;;;;3.57;2.10;;;;;;;;;;5061723;28;20362;-72
2022/08/29 03:25:20;;;;;;;2.90;2.10;;;;;;;;;;5060566;28;20263;-72
2022/08/29 03:27:46;;;;;;;4.73;2.07;;;;;;;;;;5064294;28;20185;-72
2022/08/29 03:30:14;;;;;;;3.77;2.00;;;;;;;;;;5064627;28;20187;-72
2022/08/29 03:32:40;;;;;;;2.57;2.00;;;;;;;;;;5061180;28;20182;-72
2022/08/29 03:35:07;;;;;;;5.03;2.50;;;;;;;;;;5063808;28;20205;-72
2022/08/29 03:37:34;;;;;;;5.67;2.40;;;;;;;;;;5062998;28;20185;-72
2022/08/29 03:40:00;;;;;;;5.63;2.10;;;;;;;;;;5059123;28;20313;-72
2022/08/29 03:42:26;;;;;;;3.60;2.30;;;;;;;;;;5058444;28;20241;-72
2022/08/29 03:44:52;;;;;;;4.43;2.27;;;;;;;;;;5061104;28;20227;-72
2022/08/29 03:47:19;;;;;;;3.57;2.33;;;;;;;;;;5062053;28;20177;-72
2022/08/29 03:49:45;;;;;;;4.47;2.30;;;;;;;;;;5067202;28;20185;-72
2022/08/29 03:52:11;;;;;;;3.80;2.20;;;;;;;;;;5065265;28;20547;-72
2022/08/29 03:54:37;;;;;;;5.70;2.30;;;;;;;;;;5063923;28;20197;-72
2022/08/29 03:57:05;;;;;;;4.97;2.50;;;;;;;;;;5066314;28;20193;-72
2022/08/29 03:59:31;;;;;;;3.40;2.17;;;;;;;;;;5067148;28;20192;-72
2022/08/29 04:01:57;;;;;;;5.30;2.17;;;;;;;;;;5062758;28;20410;-72
2022/08/29 04:07:11;;;;;;;5.13;2.50;;;;;;;;;;5063157;28;20212;-71
2022/08/29 04:09:39;;;;;;;4.43;2.57;;;;;;;;;;5059440;28;20173;-71
2022/08/29 04:12:06;;;;;;;5.90;2.37;;;;;;;;;;5062130;28;20287;-71
2022/08/29 04:14:33;;;;;;;3.00;2.17;;;;;;;;;;5046585;28;20684;-72
2022/08/29 04:17:03;;;;;;;4.23;2.50;;;;;;;;;;5061051;28;20181;-71
2022/08/29 04:19:29;;;;;;;5.90;2.30;;;;;;;;;;5063389;28;20177;-72
2022/08/29 04:21:56;;;;;;;4.10;2.60;;;;;;;;;;5060564;28;20228;-71
2022/08/29 04:24:22;;;;;;;5.63;2.60;;;;;;;;;;5057615;28;20201;-71
2022/08/29 04:26:48;;;;;;;4.20;2.80;;;;;;;;;;5061265;28;20195;-71
2022/08/29 04:29:14;;;;;;;4.73;2.50;;;;;;;;;;5065876;28;20847;-71
2022/08/29 04:31:42;;;;;;;5.03;2.47;;;;;;;;;;5063227;28;20676;-72
2022/08/29 04:34:10;;;;;;;4.30;2.37;;;;;;;;;;5066991;28;20205;-71
2022/08/29 04:36:37;;;;;;;5.53;2.50;;;;;;;;;;5064356;28;20169;-71
2022/08/29 04:39:04;;;;;;;5.17;2.37;;;;;;;;;;5054685;28;20212;-71
2022/08/29 04:41:31;;;;;;;3.83;1.93;;;;;;;;;;5062882;28;20185;-71
2022/08/29 04:43:57;;;;;;;4.07;2.30;;;;;;;;;;5063407;28;20228;-71
2022/08/29 04:46:24;;;;;;;4.47;2.40;;;;;;;;;;5055715;28;20234;-71
2022/08/29 04:48:50;;;;;;;6.50;2.40;;;;;;;;;;5051709;28;20178;-71
2022/08/29 04:51:16;;;;;;;4.73;2.37;;;;;;;;;;5057751;28;20190;-71
2022/08/29 04:53:42;;;;;;;4.17;2.43;;;;;;;;;;5060922;28;20228;-71
2022/08/29 04:56:10;;;;;;;4.90;2.30;;;;;;;;;;5062246;28;20196;-72
2022/08/29 04:58:42;;;;;;;4.50;2.63;;;;;;;;;;5061649;28;20213;-71
2022/08/29 05:01:11;;;;;;;4.13;2.27;;;;;;;;;;5063500;28;20549;-71
2022/08/29 05:03:37;;;;;;;4.77;2.10;;;;;;;;;;5061811;28;20243;-71
2022/08/29 05:06:08;;;;;;;3.77;2.10;;;;;;;;;;5062654;28;20824;-71
2022/08/29 05:08:36;;;;;;;4.93;2.67;;;;;;;;;;5063991;28;20262;-71
2022/08/29 05:11:02;;;;;;;5.33;2.50;;;;;;;;;;5059685;28;20176;-71
2022/08/29 05:13:29;;;;;;;6.13;2.50;;;;;;;;;;5059611;28;20252;-72
2022/08/29 05:15:56;;;;;;;5.53;2.80;;;;;;;;;;5060687;28;20215;-72
2022/08/29 05:18:22;;;;;;;3.57;2.40;;;;;;;;;;5063080;28;20188;-72
2022/08/29 05:20:48;;;;;;;5.63;2.80;;;;;;;;;;5062737;28;20600;-72
2022/08/29 05:23:16;;;;;;;4.10;2.30;;;;;;;;;;5067249;28;20333;-72
2022/08/29 05:25:43;;;;;;;4.20;2.30;;;;;;;;;;5062494;28;20645;-72
2022/08/29 05:28:10;;;;;;;5.13;2.27;;;;;;;;;;5066810;28;20173;-72
2022/08/29 05:30:37;;;;;;;5.03;2.73;;;;;;;;;;5064129;28;20679;-71
2022/08/29 05:33:04;;;;;;;5.60;2.40;;;;;;;;;;5064095;28;20193;-72
2022/08/29 05:35:31;;;;;;;3.97;2.30;;;;;;;;;;5063651;28;20197;-72
2022/08/29 05:37:58;;;;;;;6.37;2.73;;;;;;;;;;5063387;28;20193;-71
2022/08/29 05:40:24;;;;;;;4.53;2.23;;;;;;;;;;5064483;28;20243;-71
2022/08/29 05:42:50;;;;;;;3.63;2.30;;;;;;;;;;5048376;28;20216;-72
2022/08/29 05:45:16;;;;;;;3.30;2.27;;;;;;;;;;5060995;28;20200;-72
2022/08/29 05:47:42;;;;;;;5.67;2.67;;;;;;;;;;5054936;28;20185;-74
2022/08/29 05:50:10;;;;;;;2.63;2.00;;;;;;;;;;5058871;28;20186;-73
2022/08/29 05:52:37;;;;;;;3.63;2.33;;;;;;;;;;5062018;28;20205;-77
2022/08/29 05:55:04;;;;;;;3.63;2.37;;;;;;;;;;5060598;28;20201;-76
2022/08/29 05:57:31;;;;;;;5.40;2.80;;;;;;;;;;5062682;28;20185;-73
2022/08/29 05:59:57;;;;;;;4.53;2.80;;;;;;;;;;5066284;28;20189;-74
2022/08/29 06:02:23;;;;;;;4.57;2.40;;;;;;;;;;5061212;28;20263;-75
2022/08/29 06:04:50;;;;;;;4.67;2.33;;;;;;;;;;5063832;28;20260;-72
2022/08/29 06:07:16;;;;;;;3.90;2.50;;;;;;;;;;5062641;28;20178;-75
2022/08/29 06:09:42;;;;;;;4.73;2.50;;;;;;;;;;5060552;28;20469;-75
2022/08/29 06:12:10;;;;;;;7.30;2.40;;;;;;;;;;5045289;28;20193;-72
2022/08/29 06:14:36;;;;;;;4.37;2.43;;;;;;;;;;5045277;28;20209;-73
2022/08/29 06:17:03;;;;;;;3.77;2.30;;;;;;;;;;5059639;28;20277;-75
2022/08/29 06:19:33;;;;;;;3.53;2.27;;;;;;;;;;5061354;28;20279;-73
2022/08/29 06:22:02;;;;;;;5.17;2.47;;;;;;;;;;5054622;28;20861;-72
2022/08/29 06:24:28;;;;;;;9.23;2.50;;;;;;;;;;5059303;28;20209;-71
2022/08/29 06:26:54;;;;;;;4.47;2.20;;;;;;;;;;5064032;28;20230;-73
2022/08/29 06:29:21;;;;;;;7.03;2.93;;;;;;;;;;5056923;28;20223;-73
2022/08/29 06:31:47;;;;;;;8.47;2.60;;;;;;;;;;5053033;28;20648;-74
2022/08/29 06:34:13;;;;;;;6.17;2.60;;;;;;;;;;5059797;28;20197;-72
2022/08/29 06:36:39;;;;;;;8.37;2.47;;;;;;;;;;5061833;28;20226;-73
2022/08/29 06:39:07;;;;;;;4.90;2.23;;;;;;;;;;5056044;28;20652;-72
2022/08/29 06:41:33;;;;;;;6.10;2.40;;;;;;;;;;5079659;28;20185;-73
2022/08/29 06:43:59;;;;;;;11.57;2.30;;;;;;;;;;5068518;28;20261;-73
2022/08/29 06:46:28;;;;;;;5.10;2.90;;;;;;;;;;5067523;28;20280;-73
2022/08/29 06:48:54;;;;;;;3.90;2.17;;;;;;;;;;5057895;28;20184;-73
2022/08/29 06:51:21;;;;;;;5.20;2.20;;;;;;;;;;5060669;28;20722;-72
2022/08/29 06:53:47;;;;;;;5.87;2.57;;;;;;;;;;5060517;28;20201;-72
2022/08/29 06:56:13;;;;;;;4.23;2.20;;;;;;;;;;5060647;28;20180;-72
2022/08/29 06:58:40;;;;;;;4.17;2.30;;;;;;;;;;5061104;28;20644;-72
2022/08/29 07:01:10;;;;;;;3.43;2.10;;;;;;;;;;5061549;28;20178;-73
2022/08/29 07:03:37;;;;;;;7.93;2.60;;;;;;;;;;5061166;28;20504;-72
2022/08/29 07:06:03;;;;;;;6.30;2.50;;;;;;;;;;5059021;28;20213;-72
2022/08/29 07:08:30;;;;;;;5.87;2.50;;;;;;;;;;5062988;28;20331;-72
2022/08/29 07:10:56;;;;;;;5.53;2.43;;;;;;;;;;5057519;28;20174;-72
2022/08/29 07:13:22;;;;;;;4.43;2.23;;;;;;;;;;5025987;28;1072472;-72
2022/08/29 07:15:48;;;;;;;5.40;2.40;;;;;;;;;;5060589;28;20201;-72
2022/08/29 07:18:14;;;;;;;5.47;2.50;;;;;;;;;;5061522;28;20227;-72
2022/08/29 07:20:40;;;;;;;3.57;2.30;;;;;;;;;;5060937;28;20561;-72
2022/08/29 07:23:07;;;;;;;6.00;2.47;;;;;;;;;;5061652;28;20213;-72
2022/08/29 07:25:33;;;;;;;5.37;2.50;;;;;;;;;;5060476;28;20181;-73
2022/08/29 07:27:59;;;;;;;5.43;2.50;;;;;;;;;;5059661;28;20184;-73
2022/08/29 07:30:26;;;;;;;4.20;2.50;;;;;;;;;;5062489;28;20181;-73
2022/08/29 07:32:52;;;;;;;5.43;2.70;;;;;;;;;;5062659;28;20200;-72
2022/08/29 07:35:19;;;;;;;8.37;2.83;;;;;;;;;;5065076;28;20205;-72
2022/08/29 07:37:45;;;;;;;5.60;2.53;;;;;;;;;;5061845;28;20185;-73
2022/08/29 07:40:12;;;;;;;4.93;2.53;;;;;;;;;;5060860;28;20228;-73
2022/08/29 07:42:38;;;;;;;4.10;2.43;;;;;;;;;;5062063;28;20223;-73
2022/08/29 07:45:05;;;;;;;6.07;2.70;;;;;;;;;;5064705;28;20755;-72
2022/08/29 07:47:33;;;;;;;4.27;2.43;;;;;;;;;;5059977;28;20185;-73
2022/08/29 07:50:00;;;;;;;4.17;2.60;;;;;;;;;;5043509;28;20228;-73
2022/08/29 07:52:30;;;;;;;5.47;2.43;;;;;;;;;;5056516;28;20189;-73
2022/08/29 07:54:56;;;;;;;4.67;2.57;;;;;;;;;;5059394;28;20213;-73
2022/08/29 07:57:22;;;;;;;6.53;2.70;;;;;;;;;;5062535;28;20653;-73
2022/08/29 07:59:49;;;;;;;4.53;2.53;;;;;;;;;;5063045;28;20221;-73
2022/08/29 08:02:15;;;;;;;5.37;2.73;;;;;;;;;;5058967;28;20185;-73
2022/08/29 08:04:41;;;;;;;4.40;2.60;;;;;;;;;;5054563;28;20201;-72
2022/08/29 08:07:07;;;;;;;4.67;2.60;;;;;;;;;;5062566;28;20193;-73
2022/08/29 08:09:34;;;;;;;5.17;2.50;;;;;;;;;;5059356;28;20554;-73
2022/08/29 08:12:00;;;;;;;4.90;2.40;;;;;;;;;;5061357;28;20169;-72
2022/08/29 08:14:26;;;;;;;4.83;2.60;;;;;;;;;;5059830;28;20228;-72
2022/08/29 08:16:52;;;;;;;3.20;2.57;;;;;;;;;;5062065;28;20316;-72
2022/08/29 08:19:19;;;;;;;4.10;2.50;;;;;;;;;;5057494;28;20185;-72
2022/08/29 08:21:45;;;;;;;5.67;2.70;;;;;;;;;;5059180;28;20640;-73
2022/08/29 08:24:11;;;;;;;4.07;2.67;;;;;;;;;;5057644;28;20220;-72
2022/08/29 08:26:37;;;;;;;4.90;2.60;;;;;;;;;;5057807;28;20293;-72
2022/08/29 08:29:04;;;;;;;5.50;2.70;;;;;;;;;;5058798;28;20599;-72
2022/08/29 08:31:31;;;;;;;4.97;2.63;;;;;;;;;;5057161;28;20187;-73
2022/08/29 08:33:57;;;;;;;5.03;2.60;;;;;;;;;;5057926;28;20627;-72
2022/08/29 08:36:28;;;;;;;5.70;2.67;;;;;;;;;;5058212;28;20688;-72
2022/08/29 08:38:55;;;;;;;6.00;2.53;;;;;;;;;;5057851;28;20197;-72
2022/08/29 08:41:30;;;;;;;5.20;2.33;;;;;;;;;;5063362;28;20230;-72
2022/08/29 08:44:06;;;;;;;4.27;2.50;;;;;;;;;;5052002;28;20213;-72
2022/08/29 08:46:41;;;;;;;5.87;2.90;;;;;;;;;;5063483;28;20168;-73
2022/08/29 08:49:14;;;;;;;4.83;2.53;;;;;;;;;;5064063;28;20570;-73
2022/08/29 08:51:42;;;;;;;4.33;2.33;;;;;;;;;;5060924;28;20201;-73
2022/08/29 08:54:12;;;;;;;8.97;2.97;;;;;;;;;;5062957;28;20973;-72
2022/08/29 08:56:42;;;;;;;6.77;2.70;;;;;;;;;;5064428;28;20185;-73
2022/08/29 08:59:25;;;;;;;6.07;2.77;;;;;;;;;;5061562;28;20549;-72
2022/08/29 09:01:59;;;;;;;5.77;2.73;;;;;;;;;;5060449;28;20287;-72
2022/08/29 09:04:25;;;;;;;6.80;2.60;;;;;;;;;;5107009;23;20235;-74
2022/08/29 09:07:09;;;;;;;7.17;2.70;;;;;;;;;;5081783;28;20177;-73
2022/08/29 09:09:54;;;;;;;4.80;2.77;;;;;;;;;;5078284;28;20670;-71
2022/08/29 09:12:23;;;;;;;7.37;2.60;;;;;;;;;;5077613;28;20180;-73
2022/08/29 09:15:09;;;;;;;5.07;2.57;;;;;;;;;;5050168;28;20262;-72
2022/08/29 09:17:40;;;;;;;5.43;2.53;;;;;;;;;;5039237;28;20185;-71
2022/08/29 09:20:09;;;;;;;6.53;2.90;;;;;;;;;;5051989;28;20196;-73
2022/08/29 09:22:39;;;;;;;9.43;2.57;;;;;;;;;;5056734;28;20664;-71
2022/08/29 09:25:06;;;;;;;6.70;2.87;;;;;;;;;;5057779;28;20185;-71
2022/08/29 09:27:34;;;;;;;10.33;2.70;;;;;;;;;;5044906;28;20319;-75
2022/08/29 09:30:04;;;;;;;4.63;2.50;;;;;;;;;;5062456;28;20177;-72
2022/08/29 09:32:31;;;;;;;6.70;2.50;;;;;;;;;;5044858;28;20184;-72
2022/08/29 09:34:58;;;;;;;5.30;2.60;;;;;;;;;;5028672;28;20356;-77
2022/08/29 09:37:26;;;;;;;7.23;3.03;;;;;;;;;;5059849;28;20664;-74
2022/08/29 09:39:58;;;;;;;5.50;2.83;;;;;;;;;;5060309;28;20586;-72
2022/08/29 09:42:29;;;;;;;6.60;2.80;;;;;;;;;;5043683;28;20194;-72
2022/08/29 09:44:56;;;;;;;4.60;2.60;;;;;;;;;;5061809;28;20656;-74
2022/08/29 09:47:26;;;;;;;7.53;2.90;;;;;;;;;;5063701;28;20173;-72
2022/08/29 09:50:04;;;;;;;5.43;2.70;;;;;;;;;;5061501;28;20553;-71
2022/08/29 09:52:31;;;;;;;6.67;2.87;;;;;;;;;;5060340;28;20271;-71
2022/08/29 09:54:57;;;;;;;4.63;2.60;;;;;;;;;;5062621;28;20193;-72
2022/08/29 09:57:50;;;;;;;4.67;2.67;;;;;;;;;;5059449;28;20185;-73
2022/08/29 10:00:17;;;;;;;8.67;3.20;;;;;;;;;;5059476;28;20180;-72
2022/08/29 10:02:46;;;;;;;4.63;2.40;;;;;;;;;;5039134;28;20711;-73
2022/08/29 10:05:30;;;;;;;4.43;2.90;;;;;;;;;;5058054;28;20240;-73
2022/08/29 10:07:59;;;;;;;5.27;2.93;;;;;;;;;;5064808;28;20253;-74
2022/08/29 10:10:27;;;;;;;4.77;2.60;;;;;;;;;;5069123;28;20195;-73
2022/08/29 10:12:56;;;;;;;5.60;2.87;;;;;;;;;;5065268;28;20684;-72
2022/08/29 10:15:27;;;;;;;4.37;2.60;;;;;;;;;;5062426;28;20177;-72
2022/08/29 10:18:26;;;;;;;5.77;2.90;;;;;;;;;;5064761;28;20220;-72
2022/08/29 10:20:57;;;;;;;6.00;2.53;;;;;;;;;;5030196;28;20231;-75
2022/08/29 10:23:30;;;;;;;4.27;2.43;;;;;;;;;;5048381;28;20211;-73
2022/08/29 10:25:58;;;;;;;5.97;2.93;;;;;;;;;;5061011;28;20177;-71
2022/08/29 10:28:30;;;;;;;3.67;2.47;;;;;;;;;;5061120;28;20190;-72
2022/08/29 10:30:59;;;;;;;6.10;2.40;;;;;;;;;;5065099;28;20655;-73
2022/08/29 10:33:44;;;;;;;5.47;2.53;;;;;;;;;;5064486;28;20205;-72
2022/08/29 10:36:10;;;;;;;4.23;2.80;;;;;;;;;;5029336;28;20185;-73
2022/08/29 10:38:56;;;;;;;8.83;2.80;;;;;;;;;;5047760;28;20254;-72
2022/08/29 10:41:26;;;;;;;6.47;3.43;;;;;;;;;;5035662;28;20799;-72
2022/08/29 10:44:04;;;;;;;6.40;3.07;;;;;;;;;;5058055;28;20212;-72
2022/08/29 10:46:45;;;;;;;6.47;2.60;;;;;;;;;;5056580;28;20242;-72
2022/08/29 10:49:24;;;;;;;5.10;2.80;;;;;;;;;;5060019;28;20189;-73
2022/08/29 10:52:13;;;;;;;4.43;2.60;;;;;;;;;;5068853;28;20647;-71
2022/08/29 10:55:02;;;;;;;3.33;2.40;;;;;;;;;;5050520;28;20264;-70
2022/08/29 10:57:46;;;;;;;6.37;2.63;;;;;;;;;;5073413;28;20208;-72
2022/08/29 11:00:16;;;;;;;4.43;2.60;;;;;;;;;;5042942;28;20211;-76
2022/08/29 11:02:47;;;;;;;4.07;2.40;;;;;;;;;;5058878;28;20213;-73
2022/08/29 11:05:21;;;;;;;4.97;2.33;;;;;;;;;;5057984;28;20186;-73
2022/08/29 11:07:53;;;;;;;5.00;2.93;;;;;;;;;;5065889;28;20239;-75
2022/08/29 11:10:38;;;;;;;8.30;2.87;;;;;;;;;;5046563;28;20503;-73
2022/08/29 11:13:10;;;;;;;3.60;2.50;;;;;;;;;;5056849;28;20237;-73
2022/08/29 11:15:39;;;;;;;4.57;2.77;;;;;;;;;;5063012;28;20187;-73
2022/08/29 11:18:11;;;;;;;3.93;3.00;;;;;;;;;;5058943;28;20191;-70
2022/08/29 11:20:43;;;;;;;4.93;2.90;;;;;;;;;;5055210;28;20737;-73
2022/08/29 11:23:29;;;;;;;3.23;2.70;;;;;;;;;;5075320;28;20209;-72
2022/08/29 11:25:59;;;;;;;5.80;2.83;;;;;;;;;;5066995;28;20176;-71
2022/08/29 11:28:34;;;;;;;4.37;2.83;;;;;;;;;;5068823;28;20263;-70
2022/08/29 11:31:11;;;;;;;5.03;2.70;;;;;;;;;;5029396;28;20674;-71
2022/08/29 11:33:40;;;;;;;4.30;2.70;;;;;;;;;;5056961;28;20227;-73
2022/08/29 11:36:13;;;;;;;4.40;2.80;;;;;;;;;;5061845;28;20212;-70
2022/08/29 11:38:49;;;;;;;3.33;2.53;;;;;;;;;;5052090;28;20186;-70
2022/08/29 11:41:24;;;;;;;3.20;2.50;;;;;;;;;;5062814;28;20220;-71
2022/08/29 11:43:52;;;;;;;4.30;2.60;;;;;;;;;;5062909;28;20213;-70
2022/08/29 11:46:39;;;;;;;5.13;2.50;;;;;;;;;;5061602;28;20173;-69
2022/08/29 11:49:37;;;;;;;4.70;2.70;;;;;;;;;;5061642;28;20183;-72
2022/08/29 11:52:10;;;;;;;5.30;2.67;;;;;;;;;;5034462;28;20289;-73
2022/08/29 11:54:37;;;;;;;4.03;2.87;;;;;;;;;;5060706;28;20205;-73
2022/08/29 11:57:04;;;;;;;3.20;2.40;;;;;;;;;;5045472;28;20326;-74
2022/08/29 11:59:48;;;;;;;4.47;2.37;;;;;;;;;;5046993;28;20189;-73
2022/08/29 12:02:27;;;;;;;4.30;2.83;;;;;;;;;;5062460;28;20173;-71
2022/08/29 12:05:01;;;;;;;6.10;2.53;;;;;;;;;;5058647;28;20552;-74
2022/08/29 12:07:33;;;;;;;3.83;2.63;;;;;;;;;;5060270;28;20181;-79
2022/08/29 12:10:00;;;;;;;4.53;2.50;;;;;;;;;;5046032;28;20243;-75
2022/08/29 12:12:49;;;;;;;4.20;2.60;;;;;;;;;;5062011;28;20184;-72
2022/08/29 12:15:27;;;;;;;2.87;2.47;;;;;;;;;;5060898;28;20526;-76
2022/08/29 12:17:58;;;;;;;3.70;2.60;;;;;;;;;;5059572;28;20181;-76
2022/08/29 12:20:30;;;;;;;5.00;2.67;;;;;;;;;;5060472;28;20174;-73
2022/08/29 12:23:12;;;;;;;7.83;2.47;;;;;;;;;;5062275;28;20345;-76
2022/08/29 12:25:59;;;;;;;4.43;2.53;;;;;;;;;;5063093;28;20202;-75
2022/08/29 12:28:31;;;;;;;9.67;2.97;;;;;;;;;;5061081;28;20198;-74
2022/08/29 12:30:57;;;;;;;4.63;2.50;;;;;;;;;;5058640;28;21101;-75
2022/08/29 12:33:35;;;;;;;5.43;2.60;;;;;;;;;;5040156;28;20634;-76
2022/08/29 12:36:01;;;;;;;2.60;2.20;;;;;;;;;;5057002;28;20292;-78
2022/08/29 12:38:48;;;;;;;4.20;2.40;;;;;;;;;;5050225;28;20608;-76
2022/08/29 12:41:15;;;;;;;4.50;2.60;;;;;;;;;;5054890;28;20198;-75
2022/08/29 12:43:43;;;;;;;3.27;2.33;;;;;;;;;;5058782;28;20264;-73
2022/08/29 12:46:29;;;;;;;3.77;2.37;;;;;;;;;;5061192;28;20652;-76
2022/08/29 12:49:14;;;;;;;4.00;2.73;;;;;;;;;;5041737;28;20240;-74
2022/08/29 12:51:41;;;;;;;2.43;2.23;;;;;;;;;;5059241;28;20217;-77
2022/08/29 12:54:09;;;;;;;3.10;2.40;;;;;;;;;;5045962;28;20239;-77
2022/08/29 12:56:36;;;;;;;4.60;2.53;;;;;;;;;;5039154;28;20186;-73
2022/08/29 12:59:04;;;;;;;4.37;2.60;;;;;;;;;;5055235;28;21498;-77
2022/08/29 13:01:36;;;;;;;3.20;2.37;;;;;;;;;;5060756;28;20280;-76
2022/08/29 13:04:14;;;;;;;2.93;2.33;;;;;;;;;;5057641;28;20217;-73
2022/08/29 13:06:57;;;;;;;3.87;2.50;;;;;;;;;;5033384;28;20194;-74
2022/08/29 13:09:44;;;;;;;2.90;2.37;;;;;;;;;;5040421;28;20590;-75
2022/08/29 13:12:13;;;;;;;3.83;2.57;;;;;;;;;;5058084;28;20204;-76
2022/08/29 13:14:50;;;;;;;4.27;2.30;;;;;;;;;;5059745;28;20268;-73
2022/08/29 13:17:18;;;;;;;6.70;2.40;;;;;;;;;;5062108;28;20619;-75
2022/08/29 13:20:03;;;;;;;3.83;2.50;;;;;;;;;;5058459;28;20272;-73
2022/08/29 13:22:30;;;;;;;3.20;2.27;;;;;;;;;;5058195;28;20187;-79
2022/08/29 13:25:03;;;;;;;2.73;2.40;;;;;;;;;;5061081;28;20577;-75
2022/08/29 13:27:30;;;;;;;4.30;2.60;;;;;;;;;;5060921;28;20292;-75
2022/08/29 13:30:00;;;;;;;4.00;2.20;;;;;;;;;;5059164;28;20189;-74
2022/08/29 13:32:26;;;;;;;3.23;2.30;;;;;;;;;;5045892;28;20187;-74
2022/08/29 13:34:59;;;;;;;2.60;2.17;;;;;;;;;;5060888;28;20613;-74
2022/08/29 13:37:31;;;;;;;6.00;2.30;;;;;;;;;;5059658;28;20206;-77
2022/08/29 13:40:17;;;;;;;2.63;2.27;;;;;;;;;;5056631;28;20220;-76
2022/08/29 13:42:44;;;;;;;2.47;2.27;;;;;;;;;;5057177;28;20224;-74
2022/08/29 13:45:11;;;;;;;2.73;2.10;;;;;;;;;;5062201;28;20656;-75
2022/08/29 13:47:39;;;;;;;2.43;2.10;;;;;;;;;;5046253;28;20218;-76
2022/08/29 13:50:08;;;;;;;3.17;2.30;;;;;;;;;;5060547;28;20232;-77
2022/08/29 13:52:35;;;;;;;3.50;2.50;;;;;;;;;;5061645;28;20186;-76
2022/08/29 13:55:01;;;;;;;3.00;2.40;;;;;;;;;;5063941;28;20183;-75
2022/08/29 13:57:29;;;;;;;3.17;2.10;;;;;;;;;;5062826;28;20184;-76
2022/08/29 13:59:56;;;;;;;5.50;2.33;;;;;;;;;;5063712;28;20176;-74
2022/08/29 14:02:23;;;;;;;3.60;2.30;;;;;;;;;;5062026;28;20176;-75
2022/08/29 14:04:49;;;;;;;4.07;2.30;;;;;;;;;;5046323;28;20199;-77
2022/08/29 14:07:20;;;;;;;2.57;2.30;;;;;;;;;;5064355;28;20729;-75
2022/08/29 14:09:46;;;;;;;7.77;2.40;;;;;;;;;;5063110;28;20508;-75
2022/08/29 14:12:13;;;;;;;3.37;2.40;;;;;;;;;;5063075;28;20192;-74
2022/08/29 14:14:40;;;;;;;4.83;2.17;;;;;;;;;;5027757;28;20289;-77
2022/08/29 14:17:06;;;;;;;5.00;2.30;;;;;;;;;;5063337;28;20182;-76
2022/08/29 14:19:32;;;;;;;3.20;2.27;;;;;;;;;;5064156;28;20240;-76
2022/08/29 14:21:59;;;;;;;3.80;2.40;;;;;;;;;;5060304;28;20204;-76
2022/08/29 14:24:25;;;;;;;2.93;2.20;;;;;;;;;;5062389;28;20770;-77
2022/08/29 14:26:52;;;;;;;3.33;2.20;;;;;;;;;;5065081;28;20178;-76
2022/08/29 14:29:19;;;;;;;5.60;2.20;;;;;;;;;;5047339;28;20178;-76
2022/08/29 14:31:45;;;;;;;3.83;2.30;;;;;;;;;;5062066;28;20249;-76
2022/08/29 14:34:11;;;;;;;3.53;2.40;;;;;;;;;;5062937;28;20545;-76
2022/08/29 14:36:37;;;;;;;3.43;2.43;;;;;;;;;;5062487;28;20207;-76
2022/08/29 14:39:05;;;;;;;2.97;2.20;;;;;;;;;;5040804;28;20338;-76
2022/08/29 14:41:32;;;;;;;3.73;2.13;;;;;;;;;;5050710;28;20283;-76
2022/08/29 14:43:58;;;;;;;2.17;1.97;;;;;;;;;;5058252;28;20743;-76
2022/08/29 14:46:25;;;;;;;3.47;2.23;;;;;;;;;;5062937;28;20191;-76
2022/08/29 14:48:52;;;;;;;2.43;2.10;;;;;;;;;;5067314;28;20591;-75
2022/08/29 14:51:18;;;;;;;3.53;2.20;;;;;;;;;;5054021;28;20204;-75
2022/08/29 14:53:44;;;;;;;5.30;2.30;;;;;;;;;;5057596;28;20220;-75
2022/08/29 14:56:11;;;;;;;4.33;2.60;;;;;;;;;;5066880;28;20328;-76
2022/08/29 14:58:37;;;;;;;3.37;2.30;;;;;;;;;;5068109;28;20275;-76